Sipu Muin — CHCGA — position and weather

sailwx.info

Track history (hours):
 
Tides and Currents Weather Stations Pressure Air Temp Water Temp Dewpoint Dewpoint Depression Visibility Wind Speed Wind Dir Waves Ship Positions

Sipu Muin

Last reported at 2017-Oct-25 12:00 UTC. Time now 2017-Dec-17 08:25 UTC.
Position N 45°31' W 073°33'.
Warning: this ship's position is 52 days out of date.

Length 37 m.

Type: SAR. MMSI: 316001988.

Date/timePositionNaut miles runAvg speedWind from/ knotsBaromVisibWave heightAir tempDewpointWater temp
2017-Oct-25 12:00N 45°31' W 073°33'10 0.2
2017-Oct-23 12:41N 45°25' W 073°44'743.3
2017-Oct-23 12:30N 45°24' W 073°55'4 7.7
2017-Oct-23 12:00N 45°28' W 073°54'0 0.0
2017-Oct-22 20:00N 45°28' W 073°54'0 0.0
2017-Oct-22 19:30N 45°28' W 073°54'0 0.0
2017-Oct-22 19:00N 45°28' W 073°54'0 0.5
2017-Oct-22 18:30N 45°28' W 073°54'1 2.4
2017-Oct-22 18:00N 45°29' W 073°53'0 0.4
2017-Oct-22 17:30N 45°29' W 073°53'1 2.3
2017-Oct-22 17:00N 45°28' W 073°54'0 0.0
2017-Oct-22 16:30N 45°28' W 073°54'0 0.0
2017-Oct-22 16:00N 45°28' W 073°54'0 0.0
2017-Oct-22 15:30N 45°28' W 073°54'2 3.3
2017-Oct-22 15:01N 45°29' W 073°52'1 1.2
2017-Oct-22 14:31N 45°30' W 073°52'1 1.4
2017-Oct-22 14:00N 45°30' W 073°52'1 1.2
2017-Oct-22 13:30N 45°31' W 073°51'3 6.8
2017-Oct-22 13:00N 45°28' W 073°54'0 0.0
2017-Oct-21 20:28N 45°28' W 073°54'0 0.0
2017-Oct-21 20:00N 45°28' W 073°54'5 0.9
2017-Oct-21 14:37N 45°26' W 074°01'223.3
2017-Oct-21 14:30N 45°25' W 073°58'7 6.5
2017-Oct-21 13:30N 45°31' W 073°55'3 6.0
2017-Oct-21 13:00N 45°28' W 073°54'0 0.0
2017-Oct-20 21:02N 45°28' W 073°54'0 0.0
2017-Oct-20 21:00N 45°28' W 073°54'0 0.0
2017-Oct-20 20:30N 45°28' W 073°54'4 7.4
2017-Oct-20 20:00N 45°31' W 073°51'0 1.0
2017-Oct-20 19:30N 45°31' W 073°50'0 0.4
2017-Oct-20 19:00N 45°31' W 073°50'0 0.5
2017-Oct-20 18:30N 45°31' W 073°49'4 7.5
2017-Oct-20 18:00N 45°28' W 073°53'1 1.6
2017-Oct-20 17:30N 45°28' W 073°54'0 0.0
2017-Oct-20 17:00N 45°28' W 073°54'0 0.0
2017-Oct-20 16:30N 45°28' W 073°54'0 0.0
2017-Oct-20 16:00N 45°28' W 073°54'4 7.7
2017-Oct-20 15:30N 45°31' W 073°51'1 1.5
2017-Oct-20 15:00N 45°31' W 073°50'1 1.9
2017-Oct-20 14:30N 45°31' W 073°48'1 0.9
2017-Oct-20 13:30N 45°31' W 073°50'4 8.7
2017-Oct-20 13:00N 45°28' W 073°54'0 0.0
2017-Oct-19 19:57N 45°28' W 073°54'0 0.0
2017-Oct-19 19:30N 45°28' W 073°54'0 0.0
2017-Oct-19 19:00N 45°28' W 073°54'3 6.5
2017-Oct-19 18:30N 45°31' W 073°54'0 0.7
2017-Oct-19 18:00N 45°31' W 073°53'0 0.4
2017-Oct-19 17:25N 45°31' W 073°53'3 8.1
2017-Oct-19 17:00N 45°28' W 073°54'0 0.0
2017-Oct-19 16:30N 45°28' W 073°54'0 0.0
2017-Oct-19 16:00N 45°28' W 073°54'0 0.0
2017-Oct-19 15:30N 45°28' W 073°54'0 0.0
2017-Oct-19 15:01N 45°28' W 073°54'2 3.6
2017-Oct-19 14:30N 45°28' W 073°57'4 7.8
2017-Oct-19 14:00N 45°31' W 073°53'0 0.7
2017-Oct-19 13:31N 45°31' W 073°52'1 1.2
2017-Oct-19 13:00N 45°31' W 073°51'0 0.5
2017-Oct-19 12:31N 45°31' W 073°51'3 6.5
2017-Oct-19 12:00N 45°28' W 073°54'0 0.0
2017-Oct-18 20:58N 45°28' W 073°54'4 7.2
2017-Oct-18 20:25N 45°27' W 073°60'1 2.8
2017-Oct-18 20:01N 45°28' W 073°59'2 3.5
2017-Oct-18 19:31N 45°30' W 073°57'3 5.5
2017-Oct-18 19:00N 45°31' W 073°54'3 6.4
2017-Oct-18 18:31N 45°28' W 073°54'0 0.0
2017-Oct-18 18:00N 45°28' W 073°54'0 0.0
2017-Oct-18 17:30N 45°28' W 073°54'0 0.0
2017-Oct-18 17:01N 45°28' W 073°54'0 0.0
2017-Oct-18 16:31N 45°28' W 073°54'0 0.0
2017-Oct-18 16:00N 45°28' W 073°54'0 0.0
2017-Oct-18 15:31N 45°28' W 073°54'0 0.0
2017-Oct-18 15:00N 45°28' W 073°54'0 0.0
2017-Oct-18 14:00N 45°28' W 073°54'0 0.0
2017-Oct-18 13:30N 45°28' W 073°54'0 0.0
2017-Oct-18 13:00N 45°28' W 073°54'0 0.0
2017-Oct-17 20:24N 45°28' W 073°54'0 0.0
2017-Oct-17 20:00N 45°28' W 073°54'6 4.7
2017-Oct-17 18:45N 45°27' W 074°02'1 2.6
2017-Oct-17 18:21N 45°27' W 074°01'1 4.2
2017-Oct-17 18:00N 45°26' W 073°59'1 1.5
2017-Oct-17 17:29N 45°25' W 073°59'1 1.8
2017-Oct-17 16:46N 45°25' W 073°58'416.5
2017-Oct-17 16:30N 45°28' W 073°54'0 0.1
2017-Oct-17 16:00N 45°28' W 073°54'0 0.0
2017-Oct-17 15:30N 45°28' W 073°54'0 0.0
2017-Oct-16 15:30N 45°28' W 073°54'4 8.2
2017-Oct-16 14:57N 45°24' W 073°57'12 0.6
2017-Oct-15 19:12N 45°25' W 073°39'631.5
2017-Oct-15 19:01N 45°24' W 073°48'8 7.4
2017-Oct-15 17:55N 45°21' W 073°59'1023.5
2017-Oct-15 17:30N 45°24' W 073°46'4 3.3
2017-Oct-15 16:10N 45°25' W 073°40'421.9
2017-Oct-15 16:00N 45°24' W 073°45'1113.6
2017-Oct-15 15:12N 45°23' W 074°00'0 0.1
2017-Oct-15 14:00N 45°23' W 074°00'2 3.6
2017-Oct-15 13:29N 45°21' W 073°59'  
Track history (hours):
 
Tides and Currents Weather Stations Pressure Air Temp Water Temp Dewpoint Dewpoint Depression Visibility Wind Speed Wind Dir Waves Ship Positions

Sipu Muin

Last reported at 2017-Oct-25 12:00 UTC. Time now 2017-Dec-17 08:25 UTC.
Position N 45°31' W 073°33'.
Warning: this ship's position is 52 days out of date.

Length 37 m.

Type: SAR. MMSI: 316001988.

Date/timePositionNaut miles runAvg speedWind from/ knotsBaromVisibWave heightAir tempDewpointWater temp
2017-Oct-25 12:00N 45°31' W 073°33'10 0.2
2017-Oct-23 12:41N 45°25' W 073°44'743.3
2017-Oct-23 12:30N 45°24' W 073°55'4 7.7
2017-Oct-23 12:00N 45°28' W 073°54'0 0.0
2017-Oct-22 20:00N 45°28' W 073°54'0 0.0
2017-Oct-22 19:30N 45°28' W 073°54'0 0.0
2017-Oct-22 19:00N 45°28' W 073°54'0 0.5
2017-Oct-22 18:30N 45°28' W 073°54'1 2.4
2017-Oct-22 18:00N 45°29' W 073°53'0 0.4
2017-Oct-22 17:30N 45°29' W 073°53'1 2.3
2017-Oct-22 17:00N 45°28' W 073°54'0 0.0
2017-Oct-22 16:30N 45°28' W 073°54'0 0.0
2017-Oct-22 16:00N 45°28' W 073°54'0 0.0
2017-Oct-22 15:30N 45°28' W 073°54'2 3.3
2017-Oct-22 15:01N 45°29' W 073°52'1 1.2
2017-Oct-22 14:31N 45°30' W 073°52'1 1.4
2017-Oct-22 14:00N 45°30' W 073°52'1 1.2
2017-Oct-22 13:30N 45°31' W 073°51'3 6.8
2017-Oct-22 13:00N 45°28' W 073°54'0 0.0
2017-Oct-21 20:28N 45°28' W 073°54'0 0.0
2017-Oct-21 20:00N 45°28' W 073°54'5 0.9
2017-Oct-21 14:37N 45°26' W 074°01'223.3
2017-Oct-21 14:30N 45°25' W 073°58'7 6.5
2017-Oct-21 13:30N 45°31' W 073°55'3 6.0
2017-Oct-21 13:00N 45°28' W 073°54'0 0.0
2017-Oct-20 21:02N 45°28' W 073°54'0 0.0
2017-Oct-20 21:00N 45°28' W 073°54'0 0.0
2017-Oct-20 20:30N 45°28' W 073°54'4 7.4
2017-Oct-20 20:00N 45°31' W 073°51'0 1.0
2017-Oct-20 19:30N 45°31' W 073°50'0 0.4
2017-Oct-20 19:00N 45°31' W 073°50'0 0.5
2017-Oct-20 18:30N 45°31' W 073°49'4 7.5
2017-Oct-20 18:00N 45°28' W 073°53'1 1.6
2017-Oct-20 17:30N 45°28' W 073°54'0 0.0
2017-Oct-20 17:00N 45°28' W 073°54'0 0.0
2017-Oct-20 16:30N 45°28' W 073°54'0 0.0
2017-Oct-20 16:00N 45°28' W 073°54'4 7.7
2017-Oct-20 15:30N 45°31' W 073°51'1 1.5
2017-Oct-20 15:00N 45°31' W 073°50'1 1.9
2017-Oct-20 14:30N 45°31' W 073°48'1 0.9
2017-Oct-20 13:30N 45°31' W 073°50'4 8.7
2017-Oct-20 13:00N 45°28' W 073°54'0 0.0
2017-Oct-19 19:57N 45°28' W 073°54'0 0.0
2017-Oct-19 19:30N 45°28' W 073°54'0 0.0
2017-Oct-19 19:00N 45°28' W 073°54'3 6.5
2017-Oct-19 18:30N 45°31' W 073°54'0 0.7
2017-Oct-19 18:00N 45°31' W 073°53'0 0.4
2017-Oct-19 17:25N 45°31' W 073°53'3 8.1
2017-Oct-19 17:00N 45°28' W 073°54'0 0.0
2017-Oct-19 16:30N 45°28' W 073°54'0 0.0
2017-Oct-19 16:00N 45°28' W 073°54'0 0.0
2017-Oct-19 15:30N 45°28' W 073°54'0 0.0
2017-Oct-19 15:01N 45°28' W 073°54'2 3.6
2017-Oct-19 14:30N 45°28' W 073°57'4 7.8
2017-Oct-19 14:00N 45°31' W 073°53'0 0.7
2017-Oct-19 13:31N 45°31' W 073°52'1 1.2
2017-Oct-19 13:00N 45°31' W 073°51'0 0.5
2017-Oct-19 12:31N 45°31' W 073°51'3 6.5
2017-Oct-19 12:00N 45°28' W 073°54'0 0.0
2017-Oct-18 20:58N 45°28' W 073°54'4 7.2
2017-Oct-18 20:25N 45°27' W 073°60'1 2.8
2017-Oct-18 20:01N 45°28' W 073°59'2 3.5
2017-Oct-18 19:31N 45°30' W 073°57'3 5.5
2017-Oct-18 19:00N 45°31' W 073°54'3 6.4
2017-Oct-18 18:31N 45°28' W 073°54'0 0.0
2017-Oct-18 18:00N 45°28' W 073°54'0 0.0
2017-Oct-18 17:30N 45°28' W 073°54'0 0.0
2017-Oct-18 17:01N 45°28' W 073°54'0 0.0
2017-Oct-18 16:31N 45°28' W 073°54'0 0.0
2017-Oct-18 16:00N 45°28' W 073°54'0 0.0
2017-Oct-18 15:31N 45°28' W 073°54'0 0.0
2017-Oct-18 15:00N 45°28' W 073°54'0 0.0
2017-Oct-18 14:00N 45°28' W 073°54'0 0.0
2017-Oct-18 13:30N 45°28' W 073°54'0 0.0
2017-Oct-18 13:00N 45°28' W 073°54'0 0.0
2017-Oct-17 20:24N 45°28' W 073°54'0 0.0
2017-Oct-17 20:00N 45°28' W 073°54'6 4.7
2017-Oct-17 18:45N 45°27' W 074°02'1 2.6
2017-Oct-17 18:21N 45°27' W 074°01'1 4.2
2017-Oct-17 18:00N 45°26' W 073°59'1 1.5
2017-Oct-17 17:29N 45°25' W 073°59'1 1.8
2017-Oct-17 16:46N 45°25' W 073°58'416.5
2017-Oct-17 16:30N 45°28' W 073°54'0 0.1
2017-Oct-17 16:00N 45°28' W 073°54'0 0.0
2017-Oct-17 15:30N 45°28' W 073°54'0 0.0
2017-Oct-16 15:30N 45°28' W 073°54'4 8.2
2017-Oct-16 14:57N 45°24' W 073°57'12 0.6
2017-Oct-15 19:12N 45°25' W 073°39'631.5
2017-Oct-15 19:01N 45°24' W 073°48'8 7.4
2017-Oct-15 17:55N 45°21' W 073°59'1023.5
2017-Oct-15 17:30N 45°24' W 073°46'4 3.3
2017-Oct-15 16:10N 45°25' W 073°40'421.9
2017-Oct-15 16:00N 45°24' W 073°45'1113.6
2017-Oct-15 15:12N 45°23' W 074°00'0 0.1
2017-Oct-15 14:00N 45°23' W 074°00'2 3.6
2017-Oct-15 13:29N 45°21' W 073°59'  

Dump ship's entire track history